Latest Weather Observations for Warburton

IDW60801

Issued at 11:35 am WST Saturday 20 September 2014 (issued every 30 minutes, with the page automatically refreshed every 10 minutes)

About weather observations | Map of weather stations | Latest weather observations for WA | Other Formats
Station Details ID: 013011 Name: WARBURTON AIRFIELD Lat: -26.13 Lon: 126.58 Height: 459.0 m
Data from the previous 72 hours. | See also: Recent months at Warburton
Date/Time
WST
Temp
°C
App
Temp
°C
Dew
Point
Rel
Hum
%
Delta-T
°C
Wind Press
QNH
hPa
Press
MSL
hPa
Rain
since 9 am
mm
Dir
 
Spd
km/h
Gust
km/h
Spd
kts
Gust
kts
20/11:30am 30.7 24.4 -0.8 13 15.2 ESE 22 35 12 19 1019.7 - 0.0
20/11:00am 30.1 22.5 -2.4 12 15.2 SE 28 41 15 22 1020.1 - 0.0
20/10:30am 29.2 21.9 -0.1 15 14.2 SE 28 43 15 23 1020.5 - 0.0
20/10:18am 29.1 21.5 0.7 16 13.9 ESE 30 50 16 27 1020.5 - 0.0
20/10:00am 28.7 21.2 1.3 17 13.5 ESE 30 44 16 24 1020.8 - 0.0
20/09:30am 27.2 19.9 2.3 20 12.4 SE 30 41 16 22 1021.0 - 0.0
20/09:10am 27.2 20.3 2.3 20 12.4 ESE 28 46 15 25 1021.2 - 0.0
20/09:00am 27.2 19.9 2.3 20 12.4 ESE 30 41 16 22 1021.2 1019.7 0.0
20/08:30am 25.7 19.6 3.0 23 11.3 ESE 24 32 13 17 1021.2 - 0.0
20/08:00am 23.9 17.5 3.2 26 10.3 ESE 26 35 14 19 1021.2 - 0.0
20/07:30am 22.4 16.1 3.5 29 9.3 ESE 26 35 14 19 1021.0 - 0.0
20/07:00am 21.7 16.6 4.3 32 8.7 ESE 20 28 11 15 1020.9 - 0.0
20/06:30am 20.1 15.2 4.2 35 7.8 ESE 19 28 10 15 1020.7 - 0.0
20/06:00am 18.7 13.8 4.1 38 7.1 ESE 19 26 10 14 1020.3 1018.7 0.0
20/05:30am 18.5 13.6 4.3 39 6.9 ESE 19 28 10 15 1019.9 - 0.0
20/05:00am 18.9 13.8 4.3 38 7.1 ESE 20 32 11 17 1019.4 - 0.0
20/04:30am 19.5 14.1 4.4 37 7.4 ESE 22 30 12 16 1018.9 - 0.0
20/04:00am 19.9 14.5 4.4 36 7.6 SE 22 32 12 17 1018.7 - 0.0
20/03:30am 20.3 15.0 4.8 36 7.7 SE 22 33 12 18 1018.5 - 0.0
20/03:00am 20.7 15.3 4.7 35 8.0 SE 22 30 12 16 1018.3 1016.7 0.0
20/02:30am 21.1 15.7 4.6 34 8.2 SE 22 30 12 16 1018.1 - 0.0
20/02:00am 21.7 16.0 4.7 33 8.5 SE 24 37 13 20 1018.2 - 0.0
20/01:30am 22.2 16.5 4.7 32 8.8 SE 24 37 13 20 1018.2 - 0.0
20/01:00am 22.5 16.3 4.5 31 9.1 SE 26 35 14 19 1018.0 - 0.0
20/12:30am 23.2 16.7 4.7 30 9.4 SE 28 39 15 21 1018.0 - 0.0
20/12:00am 23.3 17.1 4.3 29 9.6 SE 26 35 14 19 1018.0 1016.4 0.0
 
Date/Time
WST
Temp
°C
App
Temp
°C
Dew
Point
Rel
Hum
%
Delta-T
°C
Wind Press
QNH
hPa
Press
MSL
hPa
Rain
since 9 am
mm
Dir
 
Spd
km/h
Gust
km/h
Spd
kts
Gust
kts
19/11:30pm 23.8 17.9 3.7 27 10.0 SE 24 33 13 18 1017.9 - 0.0
19/11:00pm 24.4 19.2 3.7 26 10.4 SE 20 26 11 14 1017.9 - 0.0
19/10:30pm 24.7 19.6 2.8 24 10.8 SE 19 26 10 14 1018.1 - 0.0
19/10:00pm 25.4 20.1 2.8 23 11.2 SE 20 28 11 15 1017.9 - 0.0
19/09:30pm 25.7 20.8 1.8 21 11.7 SE 17 24 9 13 1017.8 - 0.0
19/09:00pm 26.4 21.3 0.9 19 12.3 SE 17 26 9 14 1017.6 1016.0 0.0
19/08:30pm 23.8 20.5 0.2 21 11.1 ESE 7 9 4 5 1017.3 - 0.0
19/08:00pm 26.0 21.9 -0.1 18 12.4 SSE 11 13 6 7 1017.2 - 0.0
19/07:30pm 26.9 22.8 -0.2 17 12.9 S 11 13 6 7 1017.1 - 0.0
19/07:00pm 28.0 23.5 -0.1 16 13.5 S 13 15 7 8 1016.6 - 0.0
19/06:30pm 27.6 23.8 -0.5 16 13.4 S 9 9 5 5 1016.2 - 0.0
19/06:00pm 29.3 25.5 -0.9 14 14.4 S 9 11 5 6 1015.8 1014.2 0.0
19/05:30pm 30.7 27.3 -0.8 13 15.2 S 7 9 4 5 1015.3 - 0.0
19/05:00pm 32.5 27.8 -1.7 11 16.5 S 13 17 7 9 1015.0 - 0.0
19/04:30pm 33.3 29.1 -1.1 11 16.8 WSW 11 15 6 8 1014.7 - 0.0
19/04:00pm 33.4 27.7 -1.0 11 16.9 S 19 28 10 15 1014.4 - 0.0
19/03:30pm 34.5 29.5 -1.5 10 17.7 W 15 20 8 11 1014.3 - 0.0
19/03:00pm 33.8 28.1 -0.7 11 17.1 SW 19 26 10 14 1014.2 1012.6 0.0
19/02:30pm 34.6 29.0 -0.1 11 17.4 SW 19 28 10 15 1014.3 - 0.0
19/02:00pm 34.8 29.8 -1.3 10 17.8 W 15 33 8 18 1014.4 - 0.0
19/01:30pm 34.7 30.2 -0.1 11 17.5 S 13 22 7 12 1014.7 - 0.0
19/01:00pm 33.3 28.5 0.1 12 16.6 SW 15 30 8 16 1015.3 - 0.0
19/12:30pm 33.5 28.7 0.2 12 16.7 SW 15 33 8 18 1015.5 - 0.0
19/12:00pm 33.8 31.1 0.5 12 16.8 SE 4 11 2 6 1015.9 1014.3 0.0
19/11:30am 33.4 29.7 0.1 12 16.6 SW 9 17 5 9 1016.3 - 0.0
19/11:00am 32.6 29.4 0.6 13 16.0 WNW 7 15 4 8 1016.7 - 0.0
19/10:30am 31.6 28.7 2.7 16 14.9 WNW 7 11 4 6 1017.2 - 0.0
19/10:00am 30.3 27.2 3.4 18 13.9 WNW 9 15 5 8 1017.7 - 0.0
19/09:30am 28.8 25.3 3.6 20 13.0 N 11 22 6 12 1017.9 - 0.0
19/09:00am 27.6 24.3 4.6 23 11.9 NNE 11 20 6 11 1018.0 1016.4 0.0
19/08:30am 25.3 21.3 5.0 27 10.5 NNE 15 22 8 12 1018.3 - 0.0
19/08:00am 23.4 19.3 4.4 29 9.6 NNE 15 19 8 10 1018.2 - 0.0
19/07:30am 22.8 18.8 4.8 31 9.1 ENE 15 22 8 12 1018.0 - 0.0
19/07:00am 21.7 18.4 4.3 32 8.7 E 11 17 6 9 1017.9 - 0.0
19/06:30am 19.8 16.6 5.1 38 7.3 E 11 19 6 10 1017.5 - 0.0
19/06:00am 18.0 13.8 5.6 44 6.2 E 17 20 9 11 1017.0 1015.4 0.0
19/05:30am 17.5 13.7 5.8 46 5.8 SE 15 20 8 11 1016.5 - 0.0
19/05:00am 17.9 14.1 5.8 45 6.1 ESE 15 22 8 12 1016.3 - 0.0
19/04:30am 17.7 13.9 5.9 46 5.9 ESE 15 20 8 11 1015.8 - 0.0
19/04:00am 17.7 14.0 6.3 47 5.8 ESE 15 20 8 11 1015.5 - 0.0
19/03:30am 17.5 14.6 6.4 48 5.6 ESE 11 15 6 8 1015.6 - 0.0
19/03:00am 17.4 15.5 6.6 49 5.5 SE 6 9 3 5 1015.7 1014.1 0.0
19/02:30am 17.8 14.6 6.7 48 5.6 E 13 19 7 10 1015.7 - 0.0
19/02:00am 18.0 14.3 6.5 47 5.8 ESE 15 19 8 10 1016.0 - 0.0
19/01:30am 18.3 15.0 6.5 46 6.0 ESE 13 17 7 9 1016.0 - 0.0
19/01:00am 18.6 15.7 6.4 45 6.2 ESE 11 15 6 8 1016.2 - 0.0
19/12:30am 19.2 15.9 6.3 43 6.6 ESE 13 15 7 8 1016.6 - 0.0
19/12:00am 19.9 16.2 6.3 41 7.0 ESE 15 19 8 10 1017.0 1015.4 0.0
 
Date/Time
WST
Temp
°C
App
Temp
°C
Dew
Point
Rel
Hum
%
Delta-T
°C
Wind Press
QNH
hPa
Press
MSL
hPa
Rain
since 9 am
mm
Dir
 
Spd
km/h
Gust
km/h
Spd
kts
Gust
kts
18/11:30pm 19.9 17.0 6.3 41 7.0 SE 11 13 6 7 1017.3 - 0.0
18/11:00pm 20.4 16.3 6.0 39 7.4 ESE 17 20 9 11 1017.2 - 0.0
18/10:30pm 21.0 17.1 5.4 36 7.9 ESE 15 24 8 13 1017.4 - 0.0
18/10:00pm 22.2 17.8 4.7 32 8.8 SE 17 24 9 13 1017.3 - 0.0
18/09:30pm 23.5 18.7 4.5 29 9.6 ESE 19 26 10 14 1017.2 - 0.0
18/09:00pm 24.1 19.8 3.4 26 10.3 ESE 15 20 8 11 1017.3 1015.7 0.0
18/08:30pm 25.0 20.3 3.0 24 10.9 ESE 17 20 9 11 1016.9 - 0.0
18/08:00pm 25.2 20.9 3.2 24 11.0 E 15 20 8 11 1016.6 - 0.0
18/07:30pm 25.7 21.6 2.4 22 11.5 E 13 17 7 9 1016.3 - 0.0
18/07:00pm 26.8 21.5 2.0 20 12.3 E 19 24 10 13 1015.5 - 0.0
18/06:30pm 27.4 22.6 2.5 20 12.5 E 17 24 9 13 1015.4 - 0.0
18/06:00pm 28.6 22.5 2.7 19 13.1 SE 24 33 13 18 1014.9 1013.3 0.0
18/05:30pm 29.7 23.9 2.1 17 13.9 ESE 22 30 12 16 1014.1 - 0.0
18/05:00pm 30.6 25.5 1.0 15 14.8 E 17 20 9 11 1013.8 - 0.0
18/04:30pm 31.6 26.0 0.9 14 15.4 E 20 26 11 14 1013.4 - 0.0
18/04:00pm 32.4 26.9 0.5 13 15.9 E 19 26 10 14 1013.3 - 0.0
18/03:30pm 32.6 26.9 0.6 13 16.0 E 20 26 11 14 1013.4 - 0.0
18/03:00pm 32.5 27.4 0.6 13 16.0 E 17 24 9 13 1013.5 1011.9 0.0
18/02:30pm 32.3 26.4 1.4 14 15.7 SE 22 33 12 18 1013.8 - 0.0
18/02:00pm 32.1 25.8 1.3 14 15.6 SE 24 33 13 18 1014.2 - 0.0
18/01:30pm 32.6 27.7 1.7 14 15.8 SE 17 30 9 16 1014.6 - 0.0
18/01:00pm 31.5 24.9 1.8 15 15.1 SE 26 39 14 21 1015.0 - 0.0
18/12:30pm 30.2 23.7 2.5 17 14.1 SE 26 35 14 19 1015.6 - 0.0
18/12:00pm 30.6 24.5 2.8 17 14.3 ESE 24 37 13 20 1016.0 1014.4 0.0
18/11:30am 29.6 23.6 3.5 19 13.5 ESE 24 33 13 18 1016.5 - 0.0
18/11:00am 29.4 23.7 2.6 18 13.6 SE 22 33 12 18 1017.3 - 0.0
18/10:30am 30.1 24.9 2.4 17 14.1 S 19 33 10 18 1018.2 - 0.0
18/10:00am 30.2 25.6 1.6 16 14.4 ENE 15 26 8 14 1017.4 - 0.0
18/09:30am 28.6 24.1 2.0 18 13.3 ENE 15 22 8 12 1017.8 - 0.0
18/09:00am 27.6 24.1 3.3 21 12.3 E 11 22 6 12 1018.1 1016.5 0.0
18/08:30am 24.9 20.6 3.5 25 10.7 ENE 15 24 8 13 1017.8 - 0.0
18/08:00am 23.0 18.0 3.5 28 9.7 NE 19 26 10 14 1017.8 - 0.0
18/07:30am 21.9 17.7 3.6 30 9.0 ENE 15 22 8 12 1017.6 - 0.0
18/07:00am 20.8 17.0 4.0 33 8.3 E 13 22 7 12 1017.5 - 0.0
18/06:30am 20.1 15.6 4.2 35 7.8 E 17 22 9 12 1017.3 - 0.0
18/06:00am 19.6 15.5 4.5 37 7.4 E 15 20 8 11 1017.2 1015.6 0.0
18/05:30am 19.3 15.2 4.6 38 7.3 ESE 15 20 8 11 1017.1 - 0.0
18/05:00am 19.7 14.7 4.6 37 7.5 E 20 26 11 14 1016.6 - 0.0
18/04:30am 20.1 16.0 4.6 36 7.7 ESE 15 22 8 12 1016.5 - 0.0
18/04:00am 20.3 15.9 4.8 36 7.7 E 17 24 9 13 1016.2 - 0.0
18/03:30am 20.2 15.8 4.7 36 7.7 E 17 24 9 13 1016.1 - 0.0
18/03:00am 20.7 16.3 4.7 35 8.0 ESE 17 26 9 14 1016.1 1014.5 0.0
18/02:30am 20.7 15.7 4.7 35 8.0 E 20 28 11 15 1015.9 - 0.0
18/02:00am 21.0 15.2 4.6 34 8.2 ESE 24 32 13 17 1016.0 - 0.0
18/01:30am 21.2 16.2 4.7 34 8.3 ESE 20 32 11 17 1016.3 - 0.0
18/01:00am 21.6 16.2 4.7 33 8.5 E 22 32 12 17 1016.6 - 0.0
18/12:30am 22.1 16.7 4.6 32 8.8 ESE 22 33 12 18 1017.1 - 0.0
18/12:00am 22.2 17.1 4.3 31 8.9 ESE 20 28 11 15 1017.4 1015.8 0.0
 
Date/Time
WST
Temp
°C
App
Temp
°C
Dew
Point
Rel
Hum
%
Delta-T
°C
Wind Press
QNH
hPa
Press
MSL
hPa
Rain
since 9 am
mm
Dir
 
Spd
km/h
Gust
km/h
Spd
kts
Gust
kts
17/11:30pm 22.6 17.6 4.6 31 9.1 ESE 20 32 11 17 1017.7 - 0.0
17/11:00pm 23.2 19.2 4.7 30 9.4 ESE 15 20 8 11 1017.8 - 0.0
17/10:30pm 23.1 19.3 4.1 29 9.5 ESE 13 19 7 10 1017.7 - 0.0
17/10:00pm 23.5 19.7 4.0 28 9.8 ESE 13 17 7 9 1017.9 - 0.0
17/09:30pm 24.5 19.9 3.8 26 10.4 ESE 17 24 9 13 1018.1 - 0.0
17/09:00pm 25.0 20.4 3.6 25 10.7 ESE 17 22 9 12 1018.2 1016.6 0.0
17/08:30pm 25.2 20.6 3.8 25 10.8 ESE 17 24 9 13 1018.1 - 0.0
17/08:00pm 25.3 20.7 3.9 25 10.8 ESE 17 24 9 13 1018.1 - 0.0
17/07:30pm 25.5 21.0 4.0 25 10.9 ESE 17 22 9 12 1017.9 - 0.0
17/07:00pm 25.8 21.3 4.3 25 11.0 ESE 17 24 9 13 1017.7 - 0.0
17/06:30pm 26.3 21.4 4.1 24 11.4 ESE 19 24 10 13 1017.3 - 0.0
17/06:00pm 26.9 22.0 4.0 23 11.7 ESE 19 24 10 13 1016.9 1015.3 0.0
17/05:30pm 27.6 22.5 4.0 22 12.2 ESE 20 28 11 15 1016.6 - 0.0
17/05:00pm 29.0 23.1 3.8 20 13.0 SE 24 32 13 17 1016.3 - 0.0
17/04:30pm 29.5 23.9 3.5 19 13.4 ESE 22 28 12 15 1016.0 - 0.0
17/04:00pm 29.3 24.1 3.3 19 13.4 ESE 20 26 11 14 1016.0 - 0.0
17/03:30pm 29.1 23.2 3.9 20 13.1 ESE 24 30 13 16 1015.8 - 0.0
17/03:00pm 29.3 23.0 4.0 20 13.2 ESE 26 35 14 19 1015.6 1014.0 0.0
17/02:30pm 30.8 24.1 3.8 18 14.1 ESE 28 39 15 21 1015.6 - 0.0
17/02:00pm 29.9 23.2 3.8 19 13.6 E 28 39 15 21 1015.6 - 0.0
17/01:30pm 30.0 23.6 3.1 18 13.8 SE 26 32 14 17 1016.3 - 0.0
17/01:00pm 30.8 25.5 2.9 17 14.4 ESE 20 28 11 15 1017.0 - 0.0
17/12:30pm 30.9 26.8 2.2 16 14.6 E 13 20 7 11 1017.2 - 0.0
17/12:00pm 31.7 26.6 2.8 16 14.9 E 19 30 10 16 1017.4 1015.8 0.0

Other Formats:

Comma delimited format used in spreadsheet applications
http://www.bom.gov.au/fwo/IDW60801/IDW60801.94457.axf

JavaScript Object Notation format (JSON) in row-major order
http://www.bom.gov.au/fwo/IDW60801/IDW60801.94457.json